sensor_id;sensor_type;location;lat;lon;timestamp;P1;durP1;ratioP1;P2;durP2;ratioP2
41043;SDS011;51680;49.806;18.774;2023-09-18T00:01:49;6.97;;;5.57;;
41043;SDS011;51680;49.806;18.774;2023-09-18T00:04:53;6.63;;;5.65;;
41043;SDS011;51680;49.806;18.774;2023-09-18T00:07:54;8.37;;;5.80;;
41043;SDS011;51680;49.806;18.774;2023-09-18T00:10:56;7.72;;;5.97;;
41043;SDS011;51680;49.806;18.774;2023-09-18T00:13:58;9.48;;;6.03;;
41043;SDS011;51680;49.806;18.774;2023-09-18T00:16:59;9.68;;;6.57;;
41043;SDS011;51680;49.806;18.774;2023-09-18T00:20:03;7.53;;;5.82;;
41043;SDS011;51680;49.806;18.774;2023-09-18T00:23:07;10.38;;;6.25;;
41043;SDS011;51680;49.806;18.774;2023-09-18T00:26:09;8.88;;;6.30;;
41043;SDS011;51680;49.806;18.774;2023-09-18T00:29:11;9.93;;;6.78;;
41043;SDS011;51680;49.806;18.774;2023-09-18T00:32:31;9.10;;;6.25;;
41043;SDS011;51680;49.806;18.774;2023-09-18T00:35:35;9.48;;;6.90;;
41043;SDS011;51680;49.806;18.774;2023-09-18T00:38:37;13.00;;;7.25;;
41043;SDS011;51680;49.806;18.774;2023-09-18T00:41:38;8.52;;;6.35;;
41043;SDS011;51680;49.806;18.774;2023-09-18T00:44:41;8.43;;;7.00;;
41043;SDS011;51680;49.806;18.774;2023-09-18T00:47:43;9.48;;;6.65;;
41043;SDS011;51680;49.806;18.774;2023-09-18T00:50:46;9.63;;;6.45;;
41043;SDS011;51680;49.806;18.774;2023-09-18T00:53:50;11.05;;;6.80;;
41043;SDS011;51680;49.806;18.774;2023-09-18T00:56:52;9.52;;;6.97;;
41043;SDS011;51680;49.806;18.774;2023-09-18T00:59:55;9.30;;;6.72;;
41043;SDS011;51680;49.806;18.774;2023-09-18T01:02:57;7.45;;;5.97;;
41043;SDS011;51680;49.806;18.774;2023-09-18T01:06:00;8.75;;;7.00;;
41043;SDS011;51680;49.806;18.774;2023-09-18T01:09:02;9.17;;;7.20;;
41043;SDS011;51680;49.806;18.774;2023-09-18T01:12:05;9.20;;;6.82;;
41043;SDS011;51680;49.806;18.774;2023-09-18T01:15:14;9.50;;;7.13;;
41043;SDS011;51680;49.806;18.774;2023-09-18T01:18:23;9.57;;;7.15;;
41043;SDS011;51680;49.806;18.774;2023-09-18T01:21:26;10.77;;;6.78;;
41043;SDS011;51680;49.806;18.774;2023-09-18T01:24:29;12.98;;;7.43;;
41043;SDS011;51680;49.806;18.774;2023-09-18T01:27:31;9.77;;;6.93;;
41043;SDS011;51680;49.806;18.774;2023-09-18T01:30:33;8.93;;;7.43;;
41043;SDS011;51680;49.806;18.774;2023-09-18T01:33:35;7.90;;;7.10;;
41043;SDS011;51680;49.806;18.774;2023-09-18T01:36:40;10.07;;;7.40;;
41043;SDS011;51680;49.806;18.774;2023-09-18T01:39:43;8.48;;;7.05;;
41043;SDS011;51680;49.806;18.774;2023-09-18T01:42:47;8.30;;;7.30;;
41043;SDS011;51680;49.806;18.774;2023-09-18T01:45:48;8.95;;;7.15;;
41043;SDS011;51680;49.806;18.774;2023-09-18T01:48:50;12.23;;;7.70;;
41043;SDS011;51680;49.806;18.774;2023-09-18T01:51:52;10.88;;;7.82;;
41043;SDS011;51680;49.806;18.774;2023-09-18T01:54:56;15.15;;;7.35;;
41043;SDS011;51680;49.806;18.774;2023-09-18T01:57:58;10.00;;;7.70;;
41043;SDS011;51680;49.806;18.774;2023-09-18T02:01:00;10.25;;;8.13;;
41043;SDS011;51680;49.806;18.774;2023-09-18T02:04:01;11.48;;;7.70;;
41043;SDS011;51680;49.806;18.774;2023-09-18T02:07:04;11.10;;;8.00;;
41043;SDS011;51680;49.806;18.774;2023-09-18T02:10:08;10.50;;;8.18;;
41043;SDS011;51680;49.806;18.774;2023-09-18T02:13:12;11.60;;;8.15;;
41043;SDS011;51680;49.806;18.774;2023-09-18T02:16:14;12.30;;;7.75;;
41043;SDS011;51680;49.806;18.774;2023-09-18T02:19:16;11.98;;;9.15;;
41043;SDS011;51680;49.806;18.774;2023-09-18T02:22:20;10.52;;;8.13;;
41043;SDS011;51680;49.806;18.774;2023-09-18T02:25:23;10.85;;;7.30;;
41043;SDS011;51680;49.806;18.774;2023-09-18T02:28:25;12.07;;;8.43;;
41043;SDS011;51680;49.806;18.774;2023-09-18T02:31:27;12.43;;;9.05;;
41043;SDS011;51680;49.806;18.774;2023-09-18T02:34:28;10.35;;;8.00;;
41043;SDS011;51680;49.806;18.774;2023-09-18T02:37:32;10.23;;;8.00;;
41043;SDS011;51680;49.806;18.774;2023-09-18T02:40:35;10.02;;;8.50;;
41043;SDS011;51680;49.806;18.774;2023-09-18T02:43:37;11.48;;;8.90;;
41043;SDS011;51680;49.806;18.774;2023-09-18T02:46:40;12.23;;;7.93;;
41043;SDS011;51680;49.806;18.774;2023-09-18T02:49:45;11.57;;;8.05;;
41043;SDS011;51680;49.806;18.774;2023-09-18T02:52:47;12.07;;;8.45;;
41043;SDS011;51680;49.806;18.774;2023-09-18T02:55:51;11.80;;;8.88;;
41043;SDS011;51680;49.806;18.774;2023-09-18T02:58:53;10.80;;;7.80;;
41043;SDS011;51680;49.806;18.774;2023-09-18T03:01:55;11.23;;;8.38;;
41043;SDS011;51680;49.806;18.774;2023-09-18T03:04:57;11.45;;;8.63;;
41043;SDS011;51680;49.806;18.774;2023-09-18T03:07:59;10.98;;;7.07;;
41043;SDS011;51680;49.806;18.774;2023-09-18T03:11:02;10.57;;;8.77;;
41043;SDS011;51680;49.806;18.774;2023-09-18T03:14:04;11.45;;;8.30;;
41043;SDS011;51680;49.806;18.774;2023-09-18T03:17:07;11.57;;;7.97;;
41043;SDS011;51680;49.806;18.774;2023-09-18T03:20:09;10.85;;;8.40;;
41043;SDS011;51680;49.806;18.774;2023-09-18T03:23:11;11.43;;;8.40;;
41043;SDS011;51680;49.806;18.774;2023-09-18T03:26:14;10.73;;;8.90;;
41043;SDS011;51680;49.806;18.774;2023-09-18T03:29:16;12.18;;;7.97;;
41043;SDS011;51680;49.806;18.774;2023-09-18T03:32:18;11.05;;;8.32;;
41043;SDS011;51680;49.806;18.774;2023-09-18T03:35:19;12.27;;;9.10;;
41043;SDS011;51680;49.806;18.774;2023-09-18T03:38:22;10.43;;;8.63;;
41043;SDS011;51680;49.806;18.774;2023-09-18T03:41:26;9.93;;;8.85;;
41043;SDS011;51680;49.806;18.774;2023-09-18T03:44:28;12.73;;;9.27;;
41043;SDS011;51680;49.806;18.774;2023-09-18T03:47:30;11.55;;;8.07;;
41043;SDS011;51680;49.806;18.774;2023-09-18T03:50:33;10.18;;;8.13;;
41043;SDS011;51680;49.806;18.774;2023-09-18T03:53:35;9.93;;;8.55;;
41043;SDS011;51680;49.806;18.774;2023-09-18T03:56:39;12.20;;;8.60;;
41043;SDS011;51680;49.806;18.774;2023-09-18T03:59:41;13.55;;;8.48;;
41043;SDS011;51680;49.806;18.774;2023-09-18T04:02:43;14.15;;;9.13;;
41043;SDS011;51680;49.806;18.774;2023-09-18T04:05:44;11.00;;;9.00;;
41043;SDS011;51680;49.806;18.774;2023-09-18T04:08:46;12.80;;;8.65;;
41043;SDS011;51680;49.806;18.774;2023-09-18T04:11:49;10.45;;;9.35;;
41043;SDS011;51680;49.806;18.774;2023-09-18T04:14:51;11.27;;;8.77;;
41043;SDS011;51680;49.806;18.774;2023-09-18T04:17:52;14.27;;;8.45;;
41043;SDS011;51680;49.806;18.774;2023-09-18T04:20:54;11.60;;;9.18;;
41043;SDS011;51680;49.806;18.774;2023-09-18T04:23:56;10.32;;;8.82;;
41043;SDS011;51680;49.806;18.774;2023-09-18T04:27:00;12.63;;;8.07;;
41043;SDS011;51680;49.806;18.774;2023-09-18T04:33:05;12.73;;;8.75;;
41043;SDS011;51680;49.806;18.774;2023-09-18T04:36:07;12.05;;;9.20;;
41043;SDS011;51680;49.806;18.774;2023-09-18T04:39:09;13.77;;;9.10;;
41043;SDS011;51680;49.806;18.774;2023-09-18T04:42:12;14.27;;;8.65;;
41043;SDS011;51680;49.806;18.774;2023-09-18T04:45:14;13.23;;;8.83;;
41043;SDS011;51680;49.806;18.774;2023-09-18T04:48:16;11.65;;;8.60;;
41043;SDS011;51680;49.806;18.774;2023-09-18T04:51:18;10.57;;;8.70;;
41043;SDS011;51680;49.806;18.774;2023-09-18T04:54:20;15.00;;;9.30;;
41043;SDS011;51680;49.806;18.774;2023-09-18T04:57:23;10.55;;;7.75;;
41043;SDS011;51680;49.806;18.774;2023-09-18T05:00:24;12.90;;;8.88;;
41043;SDS011;51680;49.806;18.774;2023-09-18T05:03:27;13.38;;;8.98;;
41043;SDS011;51680;49.806;18.774;2023-09-18T05:06:29;12.05;;;8.02;;
41043;SDS011;51680;49.806;18.774;2023-09-18T05:09:32;10.68;;;8.40;;
41043;SDS011;51680;49.806;18.774;2023-09-18T05:12:37;13.75;;;8.60;;
41043;SDS011;51680;49.806;18.774;2023-09-18T05:15:40;12.82;;;8.57;;
41043;SDS011;51680;49.806;18.774;2023-09-18T05:18:42;10.73;;;8.18;;
41043;SDS011;51680;49.806;18.774;2023-09-18T05:21:44;12.20;;;9.00;;
41043;SDS011;51680;49.806;18.774;2023-09-18T05:24:46;12.57;;;8.75;;
41043;SDS011;51680;49.806;18.774;2023-09-18T05:27:49;11.05;;;8.80;;
41043;SDS011;51680;49.806;18.774;2023-09-18T05:31:14;9.68;;;8.05;;
41043;SDS011;51680;49.806;18.774;2023-09-18T05:34:17;15.35;;;8.50;;
41043;SDS011;51680;49.806;18.774;2023-09-18T05:37:18;10.95;;;8.45;;
41043;SDS011;51680;49.806;18.774;2023-09-18T05:40:20;11.30;;;9.32;;
41043;SDS011;51680;49.806;18.774;2023-09-18T05:43:23;11.10;;;8.40;;
41043;SDS011;51680;49.806;18.774;2023-09-18T05:46:25;13.88;;;9.07;;
41043;SDS011;51680;49.806;18.774;2023-09-18T05:49:26;12.95;;;8.40;;
41043;SDS011;51680;49.806;18.774;2023-09-18T05:52:28;11.13;;;8.60;;
41043;SDS011;51680;49.806;18.774;2023-09-18T05:55:48;11.98;;;9.13;;
41043;SDS011;51680;49.806;18.774;2023-09-18T05:58:51;16.38;;;8.27;;
41043;SDS011;51680;49.806;18.774;2023-09-18T06:01:53;14.93;;;8.80;;
41043;SDS011;51680;49.806;18.774;2023-09-18T06:04:54;11.73;;;9.20;;
41043;SDS011;51680;49.806;18.774;2023-09-18T06:07:58;16.70;;;9.40;;
41043;SDS011;51680;49.806;18.774;2023-09-18T06:10:59;13.80;;;9.45;;
41043;SDS011;51680;49.806;18.774;2023-09-18T06:14:02;12.20;;;8.93;;
41043;SDS011;51680;49.806;18.774;2023-09-18T06:17:04;13.97;;;9.90;;
41043;SDS011;51680;49.806;18.774;2023-09-18T06:20:06;13.32;;;8.85;;
41043;SDS011;51680;49.806;18.774;2023-09-18T06:26:13;12.20;;;8.73;;
41043;SDS011;51680;49.806;18.774;2023-09-18T06:29:16;13.02;;;8.80;;
41043;SDS011;51680;49.806;18.774;2023-09-18T06:32:18;11.10;;;8.38;;
41043;SDS011;51680;49.806;18.774;2023-09-18T06:35:20;10.73;;;8.38;;
41043;SDS011;51680;49.806;18.774;2023-09-18T06:38:21;11.60;;;8.70;;
41043;SDS011;51680;49.806;18.774;2023-09-18T06:41:23;13.15;;;9.52;;
41043;SDS011;51680;49.806;18.774;2023-09-18T06:44:27;10.80;;;9.10;;
41043;SDS011;51680;49.806;18.774;2023-09-18T06:47:29;11.90;;;8.73;;
41043;SDS011;51680;49.806;18.774;2023-09-18T06:50:30;14.88;;;8.85;;
41043;SDS011;51680;49.806;18.774;2023-09-18T06:53:32;12.60;;;9.18;;
41043;SDS011;51680;49.806;18.774;2023-09-18T06:56:34;11.88;;;9.38;;
41043;SDS011;51680;49.806;18.774;2023-09-18T06:59:37;13.35;;;9.80;;
41043;SDS011;51680;49.806;18.774;2023-09-18T07:02:38;14.03;;;9.60;;
41043;SDS011;51680;49.806;18.774;2023-09-18T07:05:40;12.88;;;8.50;;
41043;SDS011;51680;49.806;18.774;2023-09-18T07:08:42;11.95;;;7.75;;
41043;SDS011;51680;49.806;18.774;2023-09-18T07:11:44;11.70;;;8.45;;
41043;SDS011;51680;49.806;18.774;2023-09-18T07:14:47;12.68;;;9.40;;
41043;SDS011;51680;49.806;18.774;2023-09-18T07:17:49;12.73;;;8.97;;
41043;SDS011;51680;49.806;18.774;2023-09-18T07:20:50;9.57;;;8.52;;
41043;SDS011;51680;49.806;18.774;2023-09-18T07:23:52;10.93;;;8.70;;
41043;SDS011;51680;49.806;18.774;2023-09-18T07:26:54;12.73;;;8.82;;
41043;SDS011;51680;49.806;18.774;2023-09-18T07:29:58;10.70;;;8.38;;
41043;SDS011;51680;49.806;18.774;2023-09-18T07:33:00;10.13;;;8.73;;
41043;SDS011;51680;49.806;18.774;2023-09-18T07:36:02;10.30;;;9.15;;
41043;SDS011;51680;49.806;18.774;2023-09-18T07:39:04;14.63;;;8.68;;
41043;SDS011;51680;49.806;18.774;2023-09-18T07:42:06;10.43;;;8.57;;
41043;SDS011;51680;49.806;18.774;2023-09-18T07:45:10;12.02;;;8.93;;
41043;SDS011;51680;49.806;18.774;2023-09-18T07:48:11;9.82;;;8.20;;
41043;SDS011;51680;49.806;18.774;2023-09-18T07:51:13;12.20;;;8.75;;
41043;SDS011;51680;49.806;18.774;2023-09-18T07:54:16;11.93;;;8.77;;
41043;SDS011;51680;49.806;18.774;2023-09-18T07:57:18;9.48;;;6.50;;
41043;SDS011;51680;49.806;18.774;2023-09-18T08:00:22;8.00;;;5.03;;
41043;SDS011;51680;49.806;18.774;2023-09-18T08:03:26;14.45;;;9.10;;
41043;SDS011;51680;49.806;18.774;2023-09-18T08:06:28;10.27;;;8.80;;
41043;SDS011;51680;49.806;18.774;2023-09-18T08:09:30;15.60;;;8.40;;
41043;SDS011;51680;49.806;18.774;2023-09-18T08:12:31;11.85;;;7.75;;
41043;SDS011;51680;49.806;18.774;2023-09-18T08:15:34;11.65;;;9.25;;
41043;SDS011;51680;49.806;18.774;2023-09-18T08:18:36;10.77;;;6.87;;
41043;SDS011;51680;49.806;18.774;2023-09-18T08:21:41;10.43;;;7.78;;
41043;SDS011;51680;49.806;18.774;2023-09-18T08:24:43;13.07;;;7.97;;
41043;SDS011;51680;49.806;18.774;2023-09-18T08:27:45;10.63;;;8.57;;
41043;SDS011;51680;49.806;18.774;2023-09-18T08:30:49;9.95;;;8.02;;
41043;SDS011;51680;49.806;18.774;2023-09-18T08:33:50;16.10;;;8.65;;
41043;SDS011;51680;49.806;18.774;2023-09-18T08:36:52;11.13;;;8.23;;
41043;SDS011;51680;49.806;18.774;2023-09-18T08:39:54;11.45;;;7.40;;
41043;SDS011;51680;49.806;18.774;2023-09-18T08:42:55;11.05;;;7.68;;
41043;SDS011;51680;49.806;18.774;2023-09-18T08:46:01;10.40;;;7.13;;
41043;SDS011;51680;49.806;18.774;2023-09-18T08:49:04;11.80;;;7.82;;
41043;SDS011;51680;49.806;18.774;2023-09-18T08:52:08;9.93;;;8.10;;
41043;SDS011;51680;49.806;18.774;2023-09-18T08:55:10;10.00;;;7.80;;
41043;SDS011;51680;49.806;18.774;2023-09-18T08:58:13;9.98;;;7.00;;
41043;SDS011;51680;49.806;18.774;2023-09-18T09:01:21;10.65;;;7.60;;
41043;SDS011;51680;49.806;18.774;2023-09-18T09:08:16;10.32;;;7.35;;
41043;SDS011;51680;49.806;18.774;2023-09-18T09:11:18;8.57;;;7.22;;
41043;SDS011;51680;49.806;18.774;2023-09-18T09:14:20;11.57;;;7.22;;
41043;SDS011;51680;49.806;18.774;2023-09-18T09:17:29;8.88;;;7.45;;
41043;SDS011;51680;49.806;18.774;2023-09-18T09:20:31;7.03;;;5.93;;
41043;SDS011;51680;49.806;18.774;2023-09-18T09:23:44;9.13;;;7.03;;
41043;SDS011;51680;49.806;18.774;2023-09-18T09:26:57;8.30;;;7.28;;
41043;SDS011;51680;49.806;18.774;2023-09-18T09:29:59;9.50;;;5.82;;
41043;SDS011;51680;49.806;18.774;2023-09-18T09:33:03;9.73;;;7.43;;
41043;SDS011;51680;49.806;18.774;2023-09-18T09:36:06;9.23;;;6.65;;
41043;SDS011;51680;49.806;18.774;2023-09-18T09:39:08;8.57;;;7.18;;
41043;SDS011;51680;49.806;18.774;2023-09-18T09:42:15;9.57;;;7.47;;
41043;SDS011;51680;49.806;18.774;2023-09-18T09:45:22;9.52;;;7.25;;
41043;SDS011;51680;49.806;18.774;2023-09-18T09:48:26;9.18;;;7.38;;
41043;SDS011;51680;49.806;18.774;2023-09-18T09:51:28;11.07;;;7.38;;
41043;SDS011;51680;49.806;18.774;2023-09-18T09:54:33;8.18;;;6.05;;
41043;SDS011;51680;49.806;18.774;2023-09-18T09:57:46;11.48;;;5.55;;
41043;SDS011;51680;49.806;18.774;2023-09-18T10:00:49;9.35;;;7.10;;
41043;SDS011;51680;49.806;18.774;2023-09-18T10:03:56;10.73;;;7.20;;
41043;SDS011;51680;49.806;18.774;2023-09-18T10:07:03;10.40;;;7.18;;
41043;SDS011;51680;49.806;18.774;2023-09-18T10:10:08;8.52;;;7.07;;
41043;SDS011;51680;49.806;18.774;2023-09-18T10:13:12;10.68;;;6.40;;
41043;SDS011;51680;49.806;18.774;2023-09-18T10:16:19;8.13;;;6.07;;
41043;SDS011;51680;49.806;18.774;2023-09-18T10:19:27;9.48;;;6.55;;
41043;SDS011;51680;49.806;18.774;2023-09-18T10:22:37;9.15;;;6.57;;
41043;SDS011;51680;49.806;18.774;2023-09-18T10:25:43;14.40;;;6.90;;
41043;SDS011;51680;49.806;18.774;2023-09-18T10:28:45;8.50;;;5.57;;
41043;SDS011;51680;49.806;18.774;2023-09-18T10:31:48;15.07;;;6.63;;
41043;SDS011;51680;49.806;18.774;2023-09-18T10:34:53;8.48;;;6.78;;
41043;SDS011;51680;49.806;18.774;2023-09-18T10:37:55;11.70;;;6.47;;
41043;SDS011;51680;49.806;18.774;2023-09-18T10:41:00;11.10;;;6.30;;
41043;SDS011;51680;49.806;18.774;2023-09-18T10:44:03;10.17;;;6.10;;
41043;SDS011;51680;49.806;18.774;2023-09-18T10:47:06;10.23;;;6.17;;
41043;SDS011;51680;49.806;18.774;2023-09-18T10:50:11;10.77;;;6.30;;
41043;SDS011;51680;49.806;18.774;2023-09-18T10:53:13;7.75;;;5.40;;
41043;SDS011;51680;49.806;18.774;2023-09-18T10:56:14;7.07;;;5.40;;
41043;SDS011;51680;49.806;18.774;2023-09-18T10:59:17;8.63;;;5.93;;
41043;SDS011;51680;49.806;18.774;2023-09-18T11:02:18;8.05;;;5.97;;
41043;SDS011;51680;49.806;18.774;2023-09-18T11:05:30;7.70;;;5.15;;
41043;SDS011;51680;49.806;18.774;2023-09-18T11:08:33;7.47;;;4.90;;
41043;SDS011;51680;49.806;18.774;2023-09-18T11:11:36;5.25;;;3.95;;
41043;SDS011;51680;49.806;18.774;2023-09-18T11:14:41;9.32;;;4.82;;
41043;SDS011;51680;49.806;18.774;2023-09-18T11:17:55;6.20;;;4.93;;
41043;SDS011;51680;49.806;18.774;2023-09-18T11:21:07;6.55;;;4.70;;
41043;SDS011;51680;49.806;18.774;2023-09-18T11:24:15;8.63;;;5.50;;
41043;SDS011;51680;49.806;18.774;2023-09-18T11:27:23;6.03;;;4.30;;
41043;SDS011;51680;49.806;18.774;2023-09-18T11:30:25;8.57;;;5.22;;
41043;SDS011;51680;49.806;18.774;2023-09-18T11:33:31;8.05;;;5.60;;
41043;SDS011;51680;49.806;18.774;2023-09-18T11:36:35;8.90;;;5.00;;
41043;SDS011;51680;49.806;18.774;2023-09-18T11:42:42;11.02;;;5.18;;
41043;SDS011;51680;49.806;18.774;2023-09-18T11:46:25;5.53;;;3.97;;
41043;SDS011;51680;49.806;18.774;2023-09-18T11:49:31;11.27;;;4.82;;
41043;SDS011;51680;49.806;18.774;2023-09-18T11:52:34;11.07;;;5.90;;
41043;SDS011;51680;49.806;18.774;2023-09-18T11:55:36;9.13;;;5.10;;
41043;SDS011;51680;49.806;18.774;2023-09-18T11:58:58;6.25;;;5.03;;
41043;SDS011;51680;49.806;18.774;2023-09-18T12:02:00;8.63;;;5.32;;
41043;SDS011;51680;49.806;18.774;2023-09-18T12:05:09;8.13;;;4.28;;
41043;SDS011;51680;49.806;18.774;2023-09-18T12:08:13;7.07;;;5.53;;
41043;SDS011;51680;49.806;18.774;2023-09-18T12:11:15;5.63;;;4.18;;
41043;SDS011;51680;49.806;18.774;2023-09-18T12:14:19;9.00;;;5.90;;
41043;SDS011;51680;49.806;18.774;2023-09-18T12:17:22;9.90;;;5.57;;
41043;SDS011;51680;49.806;18.774;2023-09-18T12:20:24;7.97;;;5.68;;
41043;SDS011;51680;49.806;18.774;2023-09-18T12:23:27;7.88;;;5.15;;
41043;SDS011;51680;49.806;18.774;2023-09-18T12:26:29;8.90;;;4.80;;
41043;SDS011;51680;49.806;18.774;2023-09-18T12:29:31;7.00;;;4.57;;
41043;SDS011;51680;49.806;18.774;2023-09-18T12:32:35;8.70;;;4.90;;
41043;SDS011;51680;49.806;18.774;2023-09-18T12:35:38;8.10;;;5.50;;
41043;SDS011;51680;49.806;18.774;2023-09-18T12:38:43;8.65;;;5.38;;
41043;SDS011;51680;49.806;18.774;2023-09-18T12:41:45;8.17;;;5.20;;
41043;SDS011;51680;49.806;18.774;2023-09-18T12:44:47;7.17;;;3.53;;
41043;SDS011;51680;49.806;18.774;2023-09-18T12:47:50;7.25;;;4.50;;
41043;SDS011;51680;49.806;18.774;2023-09-18T12:50:52;7.63;;;4.40;;
41043;SDS011;51680;49.806;18.774;2023-09-18T12:54:00;8.27;;;5.32;;
41043;SDS011;51680;49.806;18.774;2023-09-18T12:57:07;6.45;;;4.95;;
41043;SDS011;51680;49.806;18.774;2023-09-18T13:00:10;8.57;;;4.97;;
41043;SDS011;51680;49.806;18.774;2023-09-18T13:03:12;7.00;;;5.00;;
41043;SDS011;51680;49.806;18.774;2023-09-18T13:06:16;6.18;;;5.00;;
41043;SDS011;51680;49.806;18.774;2023-09-18T13:09:20;7.80;;;4.60;;
41043;SDS011;51680;49.806;18.774;2023-09-18T13:12:22;6.68;;;5.05;;
41043;SDS011;51680;49.806;18.774;2023-09-18T13:15:25;6.80;;;4.30;;
41043;SDS011;51680;49.806;18.774;2023-09-18T13:18:28;7.70;;;4.78;;
41043;SDS011;51680;49.806;18.774;2023-09-18T13:21:30;7.43;;;4.80;;
41043;SDS011;51680;49.806;18.774;2023-09-18T13:24:33;5.13;;;4.32;;
41043;SDS011;51680;49.806;18.774;2023-09-18T13:27:35;7.72;;;4.75;;
41043;SDS011;51680;49.806;18.774;2023-09-18T13:30:37;5.43;;;4.13;;
41043;SDS011;51680;49.806;18.774;2023-09-18T13:33:40;6.43;;;4.45;;
41043;SDS011;51680;49.806;18.774;2023-09-18T13:36:45;5.60;;;3.90;;
41043;SDS011;51680;49.806;18.774;2023-09-18T13:39:48;7.03;;;4.32;;
41043;SDS011;51680;49.806;18.774;2023-09-18T13:42:49;6.57;;;4.50;;
41043;SDS011;51680;49.806;18.774;2023-09-18T13:45:51;5.78;;;4.47;;
41043;SDS011;51680;49.806;18.774;2023-09-18T13:48:55;6.43;;;3.75;;
41043;SDS011;51680;49.806;18.774;2023-09-18T13:51:57;5.50;;;3.95;;
41043;SDS011;51680;49.806;18.774;2023-09-18T13:55:01;5.77;;;4.27;;
41043;SDS011;51680;49.806;18.774;2023-09-18T13:58:05;6.78;;;4.60;;
41043;SDS011;51680;49.806;18.774;2023-09-18T14:01:07;7.80;;;4.30;;
41043;SDS011;51680;49.806;18.774;2023-09-18T14:04:08;6.60;;;4.28;;
41043;SDS011;51680;49.806;18.774;2023-09-18T14:07:11;6.05;;;4.85;;
41043;SDS011;51680;49.806;18.774;2023-09-18T14:10:14;5.55;;;4.10;;
41043;SDS011;51680;49.806;18.774;2023-09-18T14:13:17;5.65;;;4.07;;
41043;SDS011;51680;49.806;18.774;2023-09-18T14:16:19;8.25;;;4.80;;
41043;SDS011;51680;49.806;18.774;2023-09-18T14:19:21;6.55;;;4.45;;
41043;SDS011;51680;49.806;18.774;2023-09-18T14:22:22;5.93;;;4.70;;
41043;SDS011;51680;49.806;18.774;2023-09-18T14:25:25;6.38;;;4.50;;
41043;SDS011;51680;49.806;18.774;2023-09-18T14:28:27;5.32;;;4.40;;
41043;SDS011;51680;49.806;18.774;2023-09-18T14:31:29;7.25;;;4.60;;
41043;SDS011;51680;49.806;18.774;2023-09-18T14:34:31;8.90;;;4.88;;
41043;SDS011;51680;49.806;18.774;2023-09-18T14:37:35;5.97;;;4.90;;
41043;SDS011;51680;49.806;18.774;2023-09-18T14:40:44;7.75;;;5.68;;
41043;SDS011;51680;49.806;18.774;2023-09-18T14:43:47;9.15;;;4.68;;
41043;SDS011;51680;49.806;18.774;2023-09-18T14:46:49;7.78;;;5.32;;
41043;SDS011;51680;49.806;18.774;2023-09-18T14:49:50;6.65;;;5.00;;
41043;SDS011;51680;49.806;18.774;2023-09-18T14:52:52;10.15;;;5.60;;
41043;SDS011;51680;49.806;18.774;2023-09-18T14:55:55;6.80;;;5.65;;
41043;SDS011;51680;49.806;18.774;2023-09-18T14:58:58;9.82;;;6.05;;
41043;SDS011;51680;49.806;18.774;2023-09-18T15:02:00;9.20;;;5.22;;
41043;SDS011;51680;49.806;18.774;2023-09-18T15:05:03;9.57;;;5.80;;
41043;SDS011;51680;49.806;18.774;2023-09-18T15:08:09;10.10;;;6.22;;
41043;SDS011;51680;49.806;18.774;2023-09-18T15:11:13;9.95;;;5.75;;
41043;SDS011;51680;49.806;18.774;2023-09-18T15:14:17;9.68;;;5.97;;
41043;SDS011;51680;49.806;18.774;2023-09-18T15:17:19;10.45;;;5.93;;
41043;SDS011;51680;49.806;18.774;2023-09-18T15:20:20;7.50;;;6.03;;
41043;SDS011;51680;49.806;18.774;2023-09-18T15:23:24;7.88;;;6.15;;
41043;SDS011;51680;49.806;18.774;2023-09-18T15:26:27;6.55;;;5.75;;
41043;SDS011;51680;49.806;18.774;2023-09-18T15:29:29;6.85;;;5.75;;
41043;SDS011;51680;49.806;18.774;2023-09-18T15:32:32;9.68;;;6.22;;
41043;SDS011;51680;49.806;18.774;2023-09-18T15:35:48;9.20;;;7.55;;
41043;SDS011;51680;49.806;18.774;2023-09-18T15:38:50;9.43;;;6.20;;
41043;SDS011;51680;49.806;18.774;2023-09-18T15:41:53;8.52;;;6.22;;
41043;SDS011;51680;49.806;18.774;2023-09-18T15:44:55;9.85;;;6.50;;
41043;SDS011;51680;49.806;18.774;2023-09-18T15:47:57;7.80;;;6.70;;
41043;SDS011;51680;49.806;18.774;2023-09-18T15:50:58;9.30;;;6.70;;
41043;SDS011;51680;49.806;18.774;2023-09-18T15:54:00;6.63;;;5.68;;
41043;SDS011;51680;49.806;18.774;2023-09-18T15:57:05;9.40;;;6.43;;
41043;SDS011;51680;49.806;18.774;2023-09-18T16:00:07;8.80;;;6.80;;
41043;SDS011;51680;49.806;18.774;2023-09-18T16:03:12;9.82;;;6.95;;
41043;SDS011;51680;49.806;18.774;2023-09-18T16:06:15;7.95;;;5.88;;
41043;SDS011;51680;49.806;18.774;2023-09-18T16:09:18;10.63;;;6.63;;
41043;SDS011;51680;49.806;18.774;2023-09-18T16:12:22;8.75;;;5.70;;
41043;SDS011;51680;49.806;18.774;2023-09-18T16:15:23;9.33;;;6.77;;
41043;SDS011;51680;49.806;18.774;2023-09-18T16:21:29;10.43;;;7.03;;
41043;SDS011;51680;49.806;18.774;2023-09-18T16:24:32;9.73;;;6.10;;
41043;SDS011;51680;49.806;18.774;2023-09-18T16:27:35;9.80;;;6.30;;
41043;SDS011;51680;49.806;18.774;2023-09-18T16:30:37;7.53;;;5.97;;
41043;SDS011;51680;49.806;18.774;2023-09-18T16:33:57;12.02;;;6.53;;
41043;SDS011;51680;49.806;18.774;2023-09-18T16:36:59;8.48;;;6.32;;
41043;SDS011;51680;49.806;18.774;2023-09-18T16:40:01;12.25;;;6.07;;
41043;SDS011;51680;49.806;18.774;2023-09-18T16:43:07;7.82;;;6.28;;
41043;SDS011;51680;49.806;18.774;2023-09-18T16:46:10;8.70;;;6.20;;
41043;SDS011;51680;49.806;18.774;2023-09-18T16:49:12;9.27;;;6.15;;
41043;SDS011;51680;49.806;18.774;2023-09-18T16:52:15;10.52;;;5.65;;
41043;SDS011;51680;49.806;18.774;2023-09-18T16:55:17;8.43;;;6.15;;
41043;SDS011;51680;49.806;18.774;2023-09-18T16:58:20;9.35;;;6.15;;
41043;SDS011;51680;49.806;18.774;2023-09-18T17:01:22;11.43;;;6.00;;
41043;SDS011;51680;49.806;18.774;2023-09-18T17:04:24;14.32;;;6.63;;
41043;SDS011;51680;49.806;18.774;2023-09-18T17:07:25;8.75;;;5.82;;
41043;SDS011;51680;49.806;18.774;2023-09-18T17:10:27;8.10;;;6.03;;
41043;SDS011;51680;49.806;18.774;2023-09-18T17:13:30;8.75;;;6.20;;
41043;SDS011;51680;49.806;18.774;2023-09-18T17:16:32;7.95;;;6.43;;
41043;SDS011;51680;49.806;18.774;2023-09-18T17:19:36;14.48;;;5.90;;
41043;SDS011;51680;49.806;18.774;2023-09-18T17:22:37;9.70;;;7.10;;
41043;SDS011;51680;49.806;18.774;2023-09-18T17:25:39;10.73;;;6.15;;
41043;SDS011;51680;49.806;18.774;2023-09-18T17:28:42;11.18;;;6.57;;
41043;SDS011;51680;49.806;18.774;2023-09-18T17:31:44;9.93;;;6.13;;
41043;SDS011;51680;49.806;18.774;2023-09-18T17:34:46;10.63;;;7.32;;
41043;SDS011;51680;49.806;18.774;2023-09-18T17:37:47;9.50;;;6.88;;
41043;SDS011;51680;49.806;18.774;2023-09-18T17:40:49;14.35;;;8.07;;
41043;SDS011;51680;49.806;18.774;2023-09-18T17:43:52;11.85;;;8.20;;
41043;SDS011;51680;49.806;18.774;2023-09-18T17:46:54;12.53;;;8.43;;
41043;SDS011;51680;49.806;18.774;2023-09-18T17:49:56;11.52;;;8.20;;
41043;SDS011;51680;49.806;18.774;2023-09-18T17:52:57;10.25;;;6.88;;
41043;SDS011;51680;49.806;18.774;2023-09-18T17:55:59;8.07;;;5.85;;
41043;SDS011;51680;49.806;18.774;2023-09-18T17:59:02;14.20;;;6.53;;
41043;SDS011;51680;49.806;18.774;2023-09-18T18:02:07;8.52;;;6.50;;
41043;SDS011;51680;49.806;18.774;2023-09-18T18:05:09;13.88;;;7.43;;
41043;SDS011;51680;49.806;18.774;2023-09-18T18:08:10;14.20;;;6.97;;
41043;SDS011;51680;49.806;18.774;2023-09-18T18:11:12;15.10;;;6.55;;
41043;SDS011;51680;49.806;18.774;2023-09-18T18:14:15;10.20;;;6.28;;
41043;SDS011;51680;49.806;18.774;2023-09-18T18:17:18;8.77;;;6.13;;